Flight Track Log - Related Links

Times and Time Zones

All times are in EDT time to prevent confusion due to time zone crossing. See the CTL17 flight status page for this flight to view local times or setup timezone preferences in your user account.


Time Position Orientation Groundspeed Altitude Reporting Facility
EDT Latitude Longitude Course Direction KTS MPH feet Rate Location/Type
Mon 04:51:00 PM 43.3619 -84.0057 160° South  Level Estimated
Mon 04:52:00 PM 43.3366 -83.9838 148° Southeast  Level FlightAware Approximate
Mon 04:53:00 PM 43.3080 -83.9718 160° South  Level Estimated
Mon 04:54:00 PM 43.2807 -83.9553 156° South  Level FlightAware Approximate
Mon 04:55:00 PM 43.2533 -83.9388 156° South  Level FlightAware Approximate
Mon 04:56:00 PM 43.2247 -83.9271 163° South  Level Estimated
Mon 04:57:00 PM 43.1965 -83.9134 161° South  Level FlightAware Approximate
Mon 04:58:00 PM 43.1683 -83.8997 161° South  Level FlightAware Approximate
Mon 04:58:07 PM 42.9942 -83.8164 160° South 166 191 5,100  Level Cleveland Center
Mon 04:59:00 PM 43.1401 -83.8861 161° South  Level FlightAware Approximate
Mon 04:59:13 PM 42.9428 -83.7939 162° South 169 194 5,100  Level Cleveland Center
Mon 05:00:00 PM 43.1115 -83.8746 160° South  Level Estimated
Mon 05:00:14 PM 42.8994 -83.7747 162° South 170 196 5,100  Level Cleveland Center
Mon 05:01:00 PM 43.0835 -83.8603 160° South  Level FlightAware Approximate
Mon 05:01:09 PM 42.8606 -83.7500 155° Southeast 168 193 5,100  Level Cleveland Center
Mon 05:02:00 PM 43.0555 -83.8461 160° South  Level FlightAware Approximate
Mon 05:02:10 PM 42.8153 -83.7336 165° South 169 194 5,100  Level Cleveland Center
Mon 05:03:00 PM 43.0275 -83.8318 160° South  Level FlightAware Approximate
Mon 05:03:10 PM 42.7675 -83.7283 175° South 164 189 5,100  Level Cleveland Center
Mon 05:04:11 PM 42.7242 -83.7119 164° South 167 192 5,100 -49 Level Cleveland Center
Mon 05:05:12 PM 42.6786 -83.6956 165° South 167 192 5,000 -148 Descending Cleveland Center
Mon 05:06:13 PM 42.6269 -83.6817 169° South 174 200 4,800 -347 Descending Cleveland Center
Mon 05:07:13 PM 42.5814 -83.6653 165° South 179 206 4,300 -496 Descending Cleveland Center
Mon 05:08:14 PM 42.5319 -83.6517 169° South 179 206 3,800 -443 Descending Cleveland Center
Mon 05:09:15 PM 42.4844 -83.6325 163° South 172 198 3,400 -393 Descending Cleveland Center
Mon 05:10:16 PM 42.4392 -83.6106 160° South 169 194 3,000 -198 Descending Cleveland Center
Mon 05:11:16 PM 42.3958 -83.5889 160° South 165 190 3,000 -248 Level Cleveland Center
Mon 05:12:17 PM 42.3550 -83.5589 151° Southeast 169 194 2,500 -443 Descending Cleveland Center
Mon 05:13:18 PM 42.3097 -83.5342 158° South 161 185 2,100 -347 Descending Cleveland Center
Mon 05:14:18 PM 42.2750 -83.5072 150° Southeast 143 165 1,800 -300 Descending Cleveland Center
Mon 05:16:00 PM 42.2333 -83.5167 160° South  Level FlightAware Approximate
Mon 05:23:00 PM 42.2393 -83.5310 160° South  Level Estimated
Mon 05:24:00 PM 42.2393 -83.5310 160° South  Level Estimated

Login

Don't have an account? Register now (free) for customized features, flight alerts, and more!